Terminal Aerodrome Forecast
Issued by NWS North Platte, NE

Home | Current Version | Previous Version | Text Only | Print | Product List | Glossary On
Versions: 1 2 3 4 5 6 7 8 9 10 11 12 13 14
959
FTUS43 KLBF 272338
TAFLBF
TAF
KLBF 272338Z 2800/2824 07010KT P6SM SCT050 SCT080
     FM280300 06006KT P6SM VCTS SCT050 BKN100CB BKN200
     FM280500 VRB05KT P6SM SCT050 BKN200
     FM281500 11006KT P6SM SCT050 BKN250
     FM281800 11008KT P6SM SCT060 BKN150=

USA.gov is the U.S. government's official web portal to all federal, state and local government web resources and services.